• Join FlightAware (Why Join?)
  • Login
  • US Flag 
08:03AM EDT


 

Airport Tracker/Info


-or-


 

Live Flight TrackerFlight Track Log ✈ LBQ652 ✈ 30-Apr-2013 ✈ KDPA - KIXD

Flight Track Log - Related Links

Times and Time Zones

All times are in EDT time to prevent confusion due to time zone crossing. See the LBQ652 flight status page for this flight to view local times or setup timezone preferences in your user account.

Time Position Orientation Groundspeed Altitude Reporting Facility
EDT Latitude Longitude Course Direction KTS MPH feet Rate Location/Type
03:27AM 41.8839 -88.3142 271° West 188 216 3,000  Level Chicago Center
03:28AM 41.8847 -88.3956 271° West 206 237 4,600 1,740 Climbing Chicago Center
03:29AM 41.8817 -88.4814 267° West 222 255 6,500 2,040 Climbing Chicago Center
03:30AM 41.8775 -88.5675 266° West 231 266 8,700 2,040 Climbing Chicago Center
03:31AM 41.8744 -88.6533 267° West 232 267 10,700 1,980 Climbing Chicago Center
03:32AM 41.9667 -88.7746 270° West  Level FlightAware Approximate
03:32AM 41.8703 -88.7631 267° West 245 282 12,800  Level Chicago Center
03:33AM 41.8439 -88.8500 248° West 258 297 14,500 1,680 Climbing Chicago Center
03:34AM 41.8119 -88.9364 244° Southwest 260 299 16,200 1,800 Climbing Chicago Center
03:35AM 41.7775 -89.0247 242° Southwest 269 310 18,200 1,800 Climbing Chicago Center
03:36AM 41.7419 -89.1169 243° Southwest 277 319 19,900 1,680 Climbing Chicago Center
03:37AM 41.7078 -89.2108 244° Southwest 284 327 21,600 1,500 Climbing Chicago Center
03:38AM 41.6900 -89.3117 257° West 282 325 23,000 1,320 Climbing Chicago Center
03:39AM 41.6672 -89.4131 253° West 284 327 24,300 1,260 Climbing Chicago Center
03:40AM 41.6217 -89.5042 236° Southwest 296 341 25,600 1,140 Climbing Chicago Center
03:41AM 41.5750 -89.6019 237° Southwest 307 353 26,600 960 Climbing Chicago Center
03:42AM 41.5269 -89.7022 237° Southwest 319 367 27,600 900 Climbing Chicago Center
03:43AM 41.4775 -89.8047 237° Southwest 325 374 28,500 960 Climbing Chicago Center
03:44AM 41.4283 -89.9067 237° Southwest 329 379 29,600 1,140 Climbing Chicago Center
03:45AM 41.3783 -90.0119 238° Southwest 335 386 30,800 1,200 Climbing Chicago Center
03:46AM 41.3278 -90.1144 237° Southwest 335 386 32,000 1,200 Climbing Chicago Center
03:47AM 41.2778 -90.2186 237° Southwest 335 386 33,200 960 Climbing Chicago Center
03:48AM 41.2275 -90.3247 238° Southwest 342 394 34,000 360 Climbing Chicago Center
03:49AM 41.1758 -90.4314 237° Southwest 344 396 34,000  Level Chicago Center
03:50AM 41.1194 -90.5458 237° Southwest 366 421 34,000  Level Chicago Center
03:51AM 41.0622 -90.6622 237° Southwest 376 433 34,000  Level Chicago Center
03:52AM 41.0042 -90.7792 237° Southwest 380 437 34,000  Level Chicago Center
03:53AM 40.9453 -90.8978 237° Southwest 385 443 34,000  Level Chicago Center
03:54AM 40.8878 -91.0139 237° Southwest 380 437 34,000  Level Chicago Center
03:55AM 40.8289 -91.1311 236° Southwest 383 441 34,000  Level Chicago Center
03:56AM 40.7700 -91.2492 237° Southwest 384 442 34,000  Level Chicago Center
03:57AM 40.7092 -91.3703 236° Southwest 385 443 34,000  Level Chicago Center
03:58AM 40.6486 -91.4858 235° Southwest 385 443 34,000  Level Chicago Center
03:59AM 40.5900 -91.6033 237° Southwest 388 447 34,000  Level Chicago Center
04:00AM 40.5306 -91.7189 236° Southwest 385 443 34,000  Level Kansas City Center
04:01AM 40.4717 -91.8344 236° Southwest 383 441 34,000  Level Kansas City Center
04:02AM 40.4125 -91.9503 236° Southwest 384 442 34,000  Level Kansas City Center
04:03AM 40.3531 -92.0669 236° Southwest 385 443 34,000 -600 Level Kansas City Center
04:04AM 40.2931 -92.1833 236° Southwest 386 444 32,800 -1,020 Descending Kansas City Center
04:05AM 40.2314 -92.3031 236° Southwest 390 449 32,000 -420 Descending Kansas City Center
04:06AM 40.1622 -92.4356 236° Southwest 394 453 32,000  Level Kansas City Center
04:07AM 40.1036 -92.5486 236° Southwest 392 451 32,000  Level Kansas City Center
04:08AM 40.0450 -92.6594 235° Southwest 391 450 32,000  Level Kansas City Center
04:09AM 39.9847 -92.7742 236° Southwest 386 444 32,000  Level Kansas City Center
04:10AM 39.9236 -92.8883 235° Southwest 386 444 32,000  Level Kansas City Center
04:11AM 39.8642 -93.0011 236° Southwest 382 440 32,000  Level Kansas City Center
04:12AM 39.8036 -93.1161 236° Southwest 386 444 32,000  Level Kansas City Center
04:13AM 39.7433 -93.2275 235° Southwest 382 440 32,000  Level Kansas City Center
04:14AM 39.6814 -93.3403 235° Southwest 384 442 32,000 -420 Level Kansas City Center
04:15AM 39.6083 -93.4775 235° Southwest 387 445 31,200 -960 Descending Kansas City Center
04:16AM 39.5453 -93.5942 235° Southwest 396 456 30,100 -1,440 Descending Kansas City Center
04:17AM 39.4814 -93.7108 235° Southwest 399 459 28,400 -2,100 Descending Kansas City Center
04:18AM 39.4267 -93.8169 236° Southwest 386 444 25,900 -2,760 Descending Kansas City Center
04:19AM 39.3589 -93.9389 234° Southwest 374 430 22,900 -2,640 Descending Kansas City Center
04:20AM 39.3039 -94.0375 234° Southwest 358 412 20,600 -2,340 Descending Kansas City Center
04:21AM 39.2525 -94.1339 235° Southwest 342 394 18,200 -2,400 Descending Kansas City Center
04:22AM 39.2014 -94.2253 234° Southwest 332 382 15,800 -2,520 Descending Kansas City Center
04:23AM 39.1439 -94.3292 235° Southwest 319 367 13,200 -2,340 Descending Kansas City Center
04:24AM 39.0961 -94.4142 234° Southwest 309 356 11,100 -2,040 Descending Kansas City Center
04:25AM 39.0522 -94.4944 235° Southwest 289 333 9,100 -2,100 Descending Kansas City Center
04:26AM 39.0042 -94.5819 235° Southwest 271 312 6,900 -1,860 Descending Kansas City Center
04:27AM 38.9708 -94.6408 234° Southwest 258 297 5,400 -1,500 Descending Kansas City Center